createdAt,value
2023-04-09T00:00:02.777Z,94.93
2023-04-09T00:01:02.654Z,94.68
2023-04-09T00:02:01.665Z,94.68
2023-04-09T00:03:01.923Z,94.68
2023-04-09T00:04:01.947Z,94.27
2023-04-09T00:05:01.713Z,94.48
2023-04-09T00:06:01.664Z,94.58
2023-04-09T00:07:02.346Z,94.58
2023-04-09T00:08:02.622Z,94.07
2023-04-09T00:09:02.807Z,94.48
2023-04-09T00:10:02.411Z,94.27
2023-04-09T00:11:02.292Z,94.07
2023-04-09T00:12:02.206Z,93.96
2023-04-09T00:13:02.068Z,94.37
2023-04-09T00:14:02.097Z,94.07
2023-04-09T00:15:02.124Z,93.96
2023-04-09T00:16:02.156Z,93.86
2023-04-09T00:17:02.504Z,94.07
2023-04-09T00:18:02.082Z,94.37
2023-04-09T00:19:02.479Z,94.99
2023-04-09T00:20:01.983Z,95.30
2023-04-09T00:21:02.360Z,95.30
2023-04-09T00:22:02.444Z,94.89
2023-04-09T00:23:02.859Z,94.89
2023-04-09T00:24:02.746Z,95.24
2023-04-09T00:25:02.942Z,95.65
2023-04-09T00:26:02.599Z,95.75
2023-04-09T00:27:02.561Z,95.96
2023-04-09T00:28:02.652Z,95.96
2023-04-09T00:29:02.569Z,95.65
2023-04-09T00:30:02.472Z,95.55
2023-04-09T00:31:03.072Z,95.96
2023-04-09T00:32:02.093Z,96.27
2023-04-09T00:33:02.076Z,96.47
2023-04-09T00:34:02.157Z,96.06
2023-04-09T00:35:01.910Z,96.17
2023-04-09T00:36:01.820Z,96.37
2023-04-09T00:37:02.119Z,96.58
2023-04-09T00:38:02.068Z,96.06
2023-04-09T00:39:02.452Z,95.71
2023-04-09T00:40:02.398Z,95.40
2023-04-09T00:41:01.982Z,94.89
2023-04-09T00:42:02.435Z,93.76
2023-04-09T00:43:02.693Z,93.04
2023-04-09T00:44:02.372Z,92.69
2023-04-09T00:45:03.035Z,92.58
2023-04-09T00:46:02.735Z,93.10
2023-04-09T00:47:01.645Z,92.17
2023-04-09T00:48:01.926Z,92.48
2023-04-09T00:49:01.771Z,92.99
2023-04-09T00:50:01.595Z,93.44
2023-04-09T00:51:01.554Z,93.76
2023-04-09T00:52:02.353Z,94.17
2023-04-09T00:53:02.197Z,93.76
2023-04-09T00:54:02.048Z,93.14
2023-04-09T00:55:02.197Z,93.30
2023-04-09T00:56:02.314Z,93.51
2023-04-09T00:57:02.540Z,93.92
2023-04-09T00:58:02.760Z,94.33
2023-04-09T00:59:02.482Z,94.23
2023-04-09T01:00:02.635Z,94.68
2023-04-09T01:01:02.981Z,94.64
2023-04-09T01:02:02.071Z,94.33
2023-04-09T01:03:02.284Z,94.33
2023-04-09T01:04:02.003Z,94.12
2023-04-09T01:05:01.842Z,94.23
2023-04-09T01:06:02.346Z,93.51
2023-04-09T01:07:01.896Z,93.51
2023-04-09T01:08:01.771Z,94.02
2023-04-09T01:09:02.256Z,94.48
2023-04-09T01:10:02.269Z,94.17
2023-04-09T01:11:02.381Z,94.37
2023-04-09T01:12:02.351Z,94.78
2023-04-09T01:13:02.646Z,94.68
2023-04-09T01:14:02.575Z,94.78
2023-04-09T01:15:02.496Z,94.89
2023-04-09T01:16:02.434Z,94.99
2023-04-09T01:17:02.038Z,95.09
2023-04-09T01:18:01.797Z,94.99
2023-04-09T01:19:02.344Z,94.84
2023-04-09T01:20:02.161Z,94.23
2023-04-09T01:21:02.188Z,93.40
2023-04-09T01:22:02.365Z,92.69
2023-04-09T01:23:02.165Z,92.69
2023-04-09T01:24:02.325Z,92.69
2023-04-09T01:25:02.330Z,92.48
2023-04-09T01:26:02.440Z,92.48
2023-04-09T01:27:02.570Z,92.69
2023-04-09T01:28:02.045Z,92.69
2023-04-09T01:29:02.063Z,92.69
2023-04-09T01:30:02.582Z,92.69
2023-04-09T01:31:02.222Z,92.58
2023-04-09T01:32:01.825Z,92.79
2023-04-09T01:33:01.677Z,92.69
2023-04-09T01:34:01.625Z,92.38
2023-04-09T01:35:02.113Z,92.17
2023-04-09T01:36:01.705Z,91.97
2023-04-09T01:37:02.179Z,91.86
2023-04-09T01:38:01.993Z,92.07
2023-04-09T01:39:01.887Z,92.58
2023-04-09T01:40:02.173Z,93.10
2023-04-09T01:41:02.043Z,93.30
2023-04-09T01:42:02.589Z,93.20
2023-04-09T01:43:02.221Z,92.99
2023-04-09T01:44:02.767Z,93.20
2023-04-09T01:45:02.492Z,93.40
2023-04-09T01:46:02.612Z,93.20
2023-04-09T01:47:02.099Z,93.35
2023-04-09T01:48:02.120Z,93.96
2023-04-09T01:49:02.223Z,93.71
2023-04-09T01:50:02.522Z,93.82
2023-04-09T01:51:01.952Z,93.92
2023-04-09T01:52:02.382Z,94.23
2023-04-09T01:53:02.348Z,94.33
2023-04-09T01:54:02.247Z,94.02
2023-04-09T01:55:02.697Z,94.12
2023-04-09T01:56:02.704Z,93.61
2023-04-09T01:57:02.259Z,93.82
2023-04-09T01:58:02.131Z,93.92
2023-04-09T01:59:02.248Z,94.27
2023-04-09T02:00:02.242Z,93.82
2023-04-09T02:01:02.517Z,93.10
2023-04-09T02:02:02.556Z,93.10
2023-04-09T02:03:02.682Z,93.20
2023-04-09T02:04:02.727Z,92.58
2023-04-09T02:05:02.404Z,91.86
2023-04-09T02:06:02.917Z,91.76
2023-04-09T02:07:03.323Z,91.76
2023-04-09T02:08:02.781Z,91.45
2023-04-09T02:09:03.269Z,91.35
2023-04-09T02:10:02.705Z,91.14
2023-04-09T02:11:02.730Z,91.29
2023-04-09T02:12:03.148Z,91.70
2023-04-09T02:13:02.999Z,91.80
2023-04-09T02:14:03.242Z,92.21
2023-04-09T02:15:03.123Z,92.83
2023-04-09T02:16:02.943Z,93.59
2023-04-09T02:17:02.556Z,94.01
2023-04-09T02:18:02.159Z,94.01
2023-04-09T02:19:02.007Z,94.11
2023-04-09T02:20:02.225Z,94.31
2023-04-09T02:21:02.294Z,94.42
2023-04-09T02:22:02.805Z,94.42
2023-04-09T02:23:02.803Z,94.31
2023-04-09T02:24:02.370Z,94.46
2023-04-09T02:25:02.521Z,94.26
2023-04-09T02:26:02.629Z,94.36
2023-04-09T02:27:01.849Z,94.05
2023-04-09T02:28:02.461Z,93.64
2023-04-09T02:29:02.317Z,92.77
2023-04-09T02:30:02.432Z,93.33
2023-04-09T02:31:02.181Z,94.26
2023-04-09T02:32:02.170Z,94.56
2023-04-09T02:33:02.807Z,94.87
2023-04-09T02:34:02.482Z,94.87
2023-04-09T02:35:02.267Z,94.36
2023-04-09T02:36:02.217Z,93.84
2023-04-09T02:37:02.817Z,93.54
2023-04-09T02:38:02.826Z,93.74
2023-04-09T02:39:02.777Z,93.16
2023-04-09T02:40:02.448Z,92.14
2023-04-09T02:41:02.340Z,91.47
2023-04-09T02:42:02.598Z,91.21
2023-04-09T02:43:02.531Z,91.83
2023-04-09T02:44:02.290Z,92.90
2023-04-09T02:45:02.324Z,93.73
2023-04-09T02:46:02.547Z,93.83
2023-04-09T02:47:03.062Z,93.83
2023-04-09T02:48:02.880Z,93.62
2023-04-09T02:49:02.827Z,93.52
2023-04-09T02:50:02.641Z,92.80
2023-04-09T02:51:02.616Z,93.93
2023-04-09T02:52:03.327Z,94.76
2023-04-09T02:53:03.100Z,94.85
2023-04-09T02:54:03.159Z,93.93
2023-04-09T02:55:03.064Z,93.01
2023-04-09T02:56:03.081Z,92.49
2023-04-09T02:57:02.122Z,92.08
2023-04-09T02:58:02.267Z,91.97
2023-04-09T02:59:02.369Z,91.15
2023-04-09T03:00:02.308Z,91.05
2023-04-09T03:01:02.370Z,91.09
2023-04-09T03:02:02.932Z,91.30
2023-04-09T03:03:02.804Z,91.09
2023-04-09T03:04:02.688Z,91.71
2023-04-09T03:05:02.458Z,91.71
2023-04-09T03:06:02.592Z,91.50
2023-04-09T03:07:02.554Z,92.43
2023-04-09T03:08:03.081Z,93.77
2023-04-09T03:09:02.811Z,94.38
2023-04-09T03:10:02.715Z,92.74
2023-04-09T03:11:02.877Z,91.50
2023-04-09T03:12:02.807Z,91.19
2023-04-09T03:13:03.281Z,90.99
2023-04-09T03:14:03.103Z,90.88
2023-04-09T03:15:02.901Z,91.50
2023-04-09T03:16:03.467Z,91.54
2023-04-09T03:17:02.143Z,91.71
2023-04-09T03:18:02.784Z,92.88
2023-04-09T03:19:02.302Z,94.37
2023-04-09T03:20:02.545Z,95.34
2023-04-09T03:21:02.413Z,96.27
2023-04-09T03:22:02.458Z,96.69
2023-04-09T03:23:02.487Z,96.99
2023-04-09T03:24:02.998Z,96.53
2023-04-09T03:25:02.519Z,96.23
2023-04-09T03:26:03.044Z,95.71
2023-04-09T03:27:02.111Z,95.30
2023-04-09T03:28:02.102Z,94.78
2023-04-09T03:29:02.534Z,94.43
2023-04-09T03:30:02.096Z,94.27
2023-04-09T03:31:02.019Z,94.02
2023-04-09T03:32:02.682Z,94.64
2023-04-09T03:33:02.688Z,94.84
2023-04-09T03:34:03.111Z,95.56
2023-04-09T03:35:02.583Z,95.77
2023-04-09T03:36:03.326Z,95.36
2023-04-09T03:37:02.917Z,94.18
2023-04-09T03:38:02.859Z,93.46
2023-04-09T03:39:03.241Z,93.25
2023-04-09T03:40:03.101Z,93.56
2023-04-09T03:41:02.892Z,93.66
2023-04-09T03:42:03.002Z,93.56
2023-04-09T03:43:02.680Z,93.77
2023-04-09T03:44:02.498Z,94.02
2023-04-09T03:45:02.527Z,94.02
2023-04-09T03:46:02.592Z,94.02
2023-04-09T03:47:02.264Z,94.02
2023-04-09T03:48:02.644Z,94.02
2023-04-09T03:49:02.483Z,94.12
2023-04-09T03:50:02.482Z,93.81
2023-04-09T03:51:02.322Z,93.35
2023-04-09T03:52:02.864Z,93.05
2023-04-09T03:53:02.873Z,92.94
2023-04-09T03:54:02.744Z,92.74
2023-04-09T03:55:03.261Z,92.63
2023-04-09T03:56:02.676Z,92.53
2023-04-09T03:57:02.331Z,93.05
2023-04-09T03:58:02.558Z,93.46
2023-04-09T03:59:02.402Z,93.77
2023-04-09T04:00:02.418Z,93.87
2023-04-09T04:01:02.416Z,94.59
2023-04-09T04:02:03.689Z,94.59
2023-04-09T04:03:03.568Z,94.38
2023-04-09T04:04:03.234Z,94.38
2023-04-09T04:05:03.154Z,94.38
2023-04-09T04:06:03.009Z,94.38
2023-04-09T04:07:02.373Z,94.49
2023-04-09T04:08:02.254Z,94.28
2023-04-09T04:09:02.192Z,94.49
2023-04-09T04:10:02.156Z,94.49
2023-04-09T04:11:02.639Z,94.28
2023-04-09T04:12:03.038Z,94.18
2023-04-09T04:13:02.973Z,94.08
2023-04-09T04:14:02.893Z,94.18
2023-04-09T04:15:02.742Z,94.59
2023-04-09T04:16:03.316Z,95.21
2023-04-09T04:17:03.176Z,95.52
2023-04-09T04:18:03.120Z,95.62
2023-04-09T04:19:02.898Z,95.73
2023-04-09T04:20:03.444Z,95.83
2023-04-09T04:21:03.355Z,95.52
2023-04-09T04:22:03.294Z,95.62
2023-04-09T04:23:03.616Z,95.21
2023-04-09T04:24:03.216Z,95.00
2023-04-09T04:25:03.196Z,95.00
2023-04-09T04:26:03.212Z,95.31
2023-04-09T04:27:02.847Z,95.42
2023-04-09T04:28:02.423Z,95.62
2023-04-09T04:29:02.528Z,95.93
2023-04-09T04:30:02.515Z,95.93
2023-04-09T04:31:02.354Z,95.83
2023-04-09T04:32:03.065Z,95.93
2023-04-09T04:33:02.924Z,95.42
2023-04-09T04:34:02.904Z,95.31
2023-04-09T04:35:02.916Z,95.42
2023-04-09T04:36:03.131Z,94.96
2023-04-09T04:37:03.109Z,95.06
2023-04-09T04:38:02.804Z,94.96
2023-04-09T04:39:02.641Z,95.17
2023-04-09T04:40:02.888Z,94.55
2023-04-09T04:41:02.957Z,93.98
2023-04-09T04:42:02.696Z,94.49
2023-04-09T04:43:02.646Z,95.00
2023-04-09T04:44:03.201Z,95.42
2023-04-09T04:45:03.113Z,95.21
2023-04-09T04:46:03.169Z,95.10
2023-04-09T04:47:02.660Z,95.10
2023-04-09T04:48:02.932Z,95.21
2023-04-09T04:49:02.664Z,95.00
2023-04-09T04:50:02.618Z,94.80
2023-04-09T04:51:02.838Z,95.42
2023-04-09T04:52:03.374Z,95.73
2023-04-09T04:53:03.284Z,95.42
2023-04-09T04:54:02.895Z,95.52
2023-04-09T04:55:02.865Z,95.42
2023-04-09T04:56:02.778Z,95.52
2023-04-09T04:57:02.504Z,95.62
2023-04-09T04:58:02.571Z,95.93
2023-04-09T04:59:02.223Z,95.62
2023-04-09T05:00:02.230Z,94.70
2023-04-09T05:01:02.593Z,94.28
2023-04-09T05:02:02.334Z,94.38
2023-04-09T05:03:02.164Z,94.59
2023-04-09T05:04:02.060Z,94.38
2023-04-09T05:05:02.071Z,93.87
2023-04-09T05:06:02.204Z,93.15
2023-04-09T05:07:02.018Z,93.05
2023-04-09T05:08:02.118Z,93.25
2023-04-09T05:09:02.389Z,92.63
2023-04-09T05:10:02.448Z,92.63
2023-04-09T05:11:02.268Z,92.74
2023-04-09T05:12:02.664Z,93.05
2023-04-09T05:13:02.253Z,93.25
2023-04-09T05:14:02.195Z,93.71
2023-04-09T05:15:02.203Z,94.32
2023-04-09T05:16:02.160Z,94.84
2023-04-09T05:17:02.876Z,94.74
2023-04-09T05:18:02.853Z,94.12
2023-04-09T05:19:02.654Z,94.43
2023-04-09T05:20:02.506Z,93.56
2023-04-09T05:21:02.902Z,93.50
2023-04-09T05:22:02.381Z,94.02
2023-04-09T05:23:02.440Z,94.43
2023-04-09T05:24:02.167Z,94.64
2023-04-09T05:25:02.167Z,94.64
2023-04-09T05:26:02.120Z,94.84
2023-04-09T05:27:02.709Z,95.05
2023-04-09T05:28:02.516Z,94.84
2023-04-09T05:29:02.493Z,94.95
2023-04-09T05:30:02.479Z,94.64
2023-04-09T05:31:02.527Z,94.74
2023-04-09T05:32:02.288Z,94.95
2023-04-09T05:33:01.694Z,95.15
2023-04-09T05:34:02.094Z,95.36
2023-04-09T05:35:02.127Z,95.67
2023-04-09T05:36:02.107Z,95.46
2023-04-09T05:37:02.340Z,95.42
2023-04-09T05:38:02.378Z,94.90
2023-04-09T05:39:02.663Z,94.49
2023-04-09T05:40:02.446Z,94.49
2023-04-09T05:41:02.348Z,94.80
2023-04-09T05:42:02.329Z,94.49
2023-04-09T05:43:02.935Z,94.03
2023-04-09T05:44:02.820Z,93.93
2023-04-09T05:45:02.417Z,94.13
2023-04-09T05:46:02.546Z,94.13
2023-04-09T05:47:02.101Z,94.24
2023-04-09T05:48:02.345Z,93.93
2023-04-09T05:49:02.098Z,93.93
2023-04-09T05:50:02.320Z,94.03
2023-04-09T05:51:02.072Z,93.62
2023-04-09T05:52:02.678Z,93.83
2023-04-09T05:53:02.528Z,93.73
2023-04-09T05:54:02.651Z,93.73
2023-04-09T05:55:02.331Z,93.83
2023-04-09T05:56:02.562Z,94.28
2023-04-09T05:57:02.316Z,94.34
2023-04-09T05:58:02.288Z,94.49
2023-04-09T05:59:02.689Z,94.85
2023-04-09T06:00:02.764Z,95.06
2023-04-09T06:01:02.690Z,94.55
2023-04-09T06:02:01.901Z,94.24
2023-04-09T06:03:02.195Z,94.55
2023-04-09T06:04:02.464Z,94.65
2023-04-09T06:05:02.124Z,94.55
2023-04-09T06:06:01.921Z,94.24
2023-04-09T06:07:01.804Z,93.83
2023-04-09T06:08:01.715Z,93.83
2023-04-09T06:09:01.721Z,93.99
2023-04-09T06:10:02.134Z,93.68
2023-04-09T06:11:02.133Z,93.37
2023-04-09T06:12:01.999Z,93.73
2023-04-09T06:13:02.280Z,93.88
2023-04-09T06:14:02.499Z,93.68
2023-04-09T06:15:01.946Z,93.99
2023-04-09T06:16:02.569Z,93.58
2023-04-09T06:17:02.217Z,93.68
2023-04-09T06:18:02.639Z,93.58
2023-04-09T06:19:02.631Z,93.33
2023-04-09T06:20:02.330Z,93.23
2023-04-09T06:21:02.383Z,93.12
2023-04-09T06:22:02.235Z,93.43
2023-04-09T06:23:02.468Z,93.64
2023-04-09T06:24:02.461Z,93.33
2023-04-09T06:25:02.696Z,92.97
2023-04-09T06:26:02.213Z,92.87
2023-04-09T06:27:02.140Z,92.77
2023-04-09T06:28:02.070Z,92.87
2023-04-09T06:29:02.118Z,92.87
2023-04-09T06:30:02.361Z,92.42
2023-04-09T06:31:02.146Z,92.52
2023-04-09T06:32:02.258Z,92.93
2023-04-09T06:33:02.523Z,93.24
2023-04-09T06:34:02.606Z,93.04
2023-04-09T06:35:02.500Z,92.79
2023-04-09T06:36:02.427Z,92.89
2023-04-09T06:37:01.678Z,93.20
2023-04-09T06:38:01.782Z,92.74
2023-04-09T06:39:01.799Z,91.72
2023-04-09T06:40:01.834Z,90.24
2023-04-09T06:41:02.092Z,89.72
2023-04-09T06:42:02.268Z,89.72
2023-04-09T06:43:02.257Z,89.69
2023-04-09T06:44:02.349Z,89.17
2023-04-09T06:45:02.248Z,88.62
2023-04-09T06:46:02.207Z,88.31
2023-04-09T06:47:02.455Z,87.79
2023-04-09T06:48:02.633Z,88.00
2023-04-09T06:49:02.567Z,88.17
2023-04-09T06:50:02.591Z,87.24
2023-04-09T06:51:02.435Z,86.79
2023-04-09T06:52:02.342Z,86.69
2023-04-09T06:53:02.314Z,86.38
2023-04-09T06:54:02.369Z,85.83
2023-04-09T06:55:02.954Z,85.31
2023-04-09T06:56:02.775Z,84.80
2023-04-09T06:57:01.745Z,84.50
2023-04-09T06:58:02.225Z,84.91
2023-04-09T06:59:01.674Z,84.70
2023-04-09T07:00:01.570Z,84.87
2023-04-09T07:01:01.928Z,84.15
2023-04-09T07:02:03.528Z,84.25
2023-04-09T07:03:03.140Z,84.22
2023-04-09T07:04:03.620Z,83.91
2023-04-09T07:05:02.888Z,82.95
2023-04-09T07:06:03.443Z,82.43
2023-04-09T07:07:02.587Z,82.23
2023-04-09T07:08:02.280Z,81.62
2023-04-09T07:09:02.300Z,81.82
2023-04-09T07:10:02.867Z,81.10
2023-04-09T07:11:02.735Z,81.01
2023-04-09T07:12:02.755Z,81.31
2023-04-09T07:13:02.735Z,81.93
2023-04-09T07:14:02.855Z,81.72
2023-04-09T07:15:02.947Z,81.99
2023-04-09T07:16:02.572Z,81.17
2023-04-09T07:17:03.210Z,80.97
2023-04-09T07:18:03.631Z,80.66
2023-04-09T07:19:03.472Z,80.66
2023-04-09T07:20:03.431Z,81.07
2023-04-09T07:21:04.397Z,80.46
2023-04-09T07:22:03.213Z,79.74
2023-04-09T07:23:03.577Z,80.32
2023-04-09T07:24:03.492Z,81.24
2023-04-09T07:25:03.312Z,80.42
2023-04-09T07:26:03.414Z,79.50
2023-04-09T07:27:02.564Z,80.28
2023-04-09T07:28:02.836Z,79.05
2023-04-09T07:29:02.810Z,78.95
2023-04-09T07:30:02.785Z,79.83
2023-04-09T07:31:02.487Z,79.73
2023-04-09T07:32:03.270Z,77.75
2023-04-09T07:33:03.023Z,77.86
2023-04-09T07:34:03.059Z,79.28
2023-04-09T07:35:03.177Z,77.82
2023-04-09T07:36:03.345Z,76.70
2023-04-09T07:37:02.843Z,74.11
2023-04-09T07:38:03.030Z,74.52
2023-04-09T07:39:02.468Z,75.23
2023-04-09T07:40:03.088Z,75.20
2023-04-09T07:41:02.624Z,74.38
2023-04-09T07:42:03.403Z,75.71
2023-04-09T07:43:03.325Z,74.08
2023-04-09T07:44:03.099Z,74.79
2023-04-09T07:45:03.262Z,74.49
2023-04-09T07:46:03.604Z,74.83
2023-04-09T07:47:02.836Z,75.03
2023-04-09T07:48:02.928Z,75.10
2023-04-09T07:49:02.497Z,75.40
2023-04-09T07:50:02.598Z,75.30
2023-04-09T07:51:02.568Z,76.22
2023-04-09T07:52:03.268Z,76.39
2023-04-09T07:53:03.392Z,75.06
2023-04-09T07:54:03.461Z,72.92
2023-04-09T07:55:03.028Z,72.31
2023-04-09T07:56:03.396Z,73.13
2023-04-09T07:57:03.345Z,72.69
2023-04-09T07:58:03.190Z,71.47
2023-04-09T07:59:03.588Z,71.47
2023-04-09T08:00:02.955Z,71.56
2023-04-09T08:01:03.222Z,70.34
2023-04-09T08:02:02.802Z,70.04
2023-04-09T08:03:03.065Z,71.26
2023-04-09T08:04:03.268Z,71.26
2023-04-09T08:05:02.749Z,71.36
2023-04-09T08:06:02.868Z,71.53
2023-04-09T08:07:03.003Z,71.53
2023-04-09T08:08:03.107Z,70.72
2023-04-09T08:09:02.926Z,71.60
2023-04-09T08:10:03.052Z,70.79
2023-04-09T08:11:03.146Z,70.58
2023-04-09T08:12:02.673Z,70.38
2023-04-09T08:13:02.434Z,71.16
2023-04-09T08:14:02.421Z,70.96
2023-04-09T08:15:02.537Z,70.55
2023-04-09T08:16:02.587Z,69.09
2023-04-09T08:17:02.314Z,67.97
2023-04-09T08:18:02.043Z,68.41
2023-04-09T08:19:02.375Z,68.72
2023-04-09T08:20:02.110Z,68.82
2023-04-09T08:21:01.882Z,69.30
2023-04-09T08:22:02.872Z,69.70
2023-04-09T08:23:02.349Z,68.18
2023-04-09T08:24:02.305Z,69.81
2023-04-09T08:25:03.039Z,69.37
2023-04-09T08:26:02.965Z,69.67
2023-04-09T08:27:02.250Z,68.93
2023-04-09T08:28:01.870Z,66.49
2023-04-09T08:29:01.833Z,67.20
2023-04-09T08:30:01.954Z,66.80
2023-04-09T08:31:02.278Z,66.86
2023-04-09T08:32:02.839Z,65.04
2023-04-09T08:33:02.245Z,65.24
2023-04-09T08:34:02.655Z,64.43
2023-04-09T08:35:02.579Z,64.23
2023-04-09T08:36:03.455Z,64.84
2023-04-09T08:37:01.783Z,63.59
2023-04-09T08:38:02.163Z,64.00
2023-04-09T08:39:02.186Z,64.61
2023-04-09T08:40:02.331Z,63.89
2023-04-09T08:41:02.109Z,62.98
2023-04-09T08:42:02.919Z,63.32
2023-04-09T08:43:02.273Z,64.53
2023-04-09T08:44:02.947Z,63.69
2023-04-09T08:45:02.858Z,62.37
2023-04-09T08:46:02.637Z,61.36
2023-04-09T08:47:01.757Z,62.71
2023-04-09T08:48:01.993Z,62.91
2023-04-09T08:49:02.246Z,63.21
2023-04-09T08:50:02.098Z,64.53
2023-04-09T08:51:02.242Z,64.64
2023-04-09T08:52:02.235Z,64.94
2023-04-09T08:53:02.216Z,64.91
2023-04-09T08:54:04.660Z,64.20
2023-04-09T08:55:02.536Z,65.62
2023-04-09T08:56:02.766Z,66.53
2023-04-09T08:57:01.816Z,64.50
2023-04-09T08:58:01.911Z,62.68
2023-04-09T08:59:02.056Z,62.98
2023-04-09T09:00:01.993Z,65.31
2023-04-09T09:01:01.815Z,66.02
2023-04-09T09:02:02.233Z,65.59
2023-04-09T09:03:02.667Z,62.95
2023-04-09T09:04:02.863Z,63.26
2023-04-09T09:05:02.716Z,63.15
2023-04-09T09:06:02.204Z,62.85
2023-04-09T09:07:02.332Z,63.15
2023-04-09T09:08:02.296Z,63.15
2023-04-09T09:09:02.687Z,62.14
2023-04-09T09:10:02.711Z,62.85
2023-04-09T09:11:02.651Z,62.54
2023-04-09T09:12:03.289Z,63.73
2023-04-09T09:13:03.373Z,61.80
2023-04-09T09:14:03.111Z,62.08
2023-04-09T09:15:02.864Z,60.49
2023-04-09T09:16:02.986Z,61.71
2023-04-09T09:17:02.037Z,62.11
2023-04-09T09:18:02.052Z,62.29
2023-04-09T09:19:02.442Z,61.27
2023-04-09T09:20:01.950Z,60.57
2023-04-09T09:21:01.964Z,62.49
2023-04-09T09:22:02.070Z,61.37
2023-04-09T09:23:02.345Z,61.68
2023-04-09T09:24:02.359Z,61.17
2023-04-09T09:25:02.316Z,62.15
2023-04-09T09:26:01.998Z,62.15
2023-04-09T09:27:02.324Z,60.84
2023-04-09T09:28:02.737Z,60.94
2023-04-09T09:29:02.552Z,60.03
2023-04-09T09:30:02.649Z,61.07
2023-04-09T09:31:02.769Z,59.45
2023-04-09T09:32:02.517Z,59.55
2023-04-09T09:33:02.546Z,59.75
2023-04-09T09:34:02.490Z,59.99
2023-04-09T09:35:02.479Z,59.99
2023-04-09T09:36:02.670Z,60.59
2023-04-09T09:37:02.653Z,60.39
2023-04-09T09:38:02.683Z,60.46
2023-04-09T09:39:03.061Z,59.85
2023-04-09T09:40:02.972Z,59.95
2023-04-09T09:41:02.523Z,59.25
2023-04-09T09:42:02.209Z,59.55
2023-04-09T09:43:02.283Z,60.84
2023-04-09T09:44:02.406Z,61.95
2023-04-09T09:45:02.465Z,60.30
2023-04-09T09:46:02.337Z,59.39
2023-04-09T09:47:02.434Z,59.70
2023-04-09T09:48:02.810Z,58.58
2023-04-09T09:49:02.275Z,58.58
2023-04-09T09:50:02.442Z,57.60
2023-04-09T09:51:02.536Z,59.01
2023-04-09T09:52:02.622Z,60.33
2023-04-09T09:53:02.597Z,59.63
2023-04-09T09:54:02.611Z,59.63
2023-04-09T09:55:02.723Z,59.32
2023-04-09T09:56:02.810Z,57.60
2023-04-09T09:57:02.992Z,57.70
2023-04-09T09:58:02.901Z,58.31
2023-04-09T09:59:03.385Z,59.12
2023-04-09T10:00:03.270Z,57.70
2023-04-09T10:01:02.942Z,58.31
2023-04-09T10:02:02.829Z,58.31
2023-04-09T10:03:02.987Z,57.47
2023-04-09T10:04:02.848Z,58.18
2023-04-09T10:05:03.059Z,57.67
2023-04-09T10:06:03.030Z,57.34
2023-04-09T10:07:03.199Z,57.44
2023-04-09T10:08:03.423Z,58.56
2023-04-09T10:09:03.288Z,58.12
2023-04-09T10:10:03.125Z,58.05
2023-04-09T10:11:02.963Z,57.95
2023-04-09T10:12:02.855Z,57.04
2023-04-09T10:13:03.045Z,56.23
2023-04-09T10:14:02.693Z,56.66
2023-04-09T10:15:02.955Z,57.17
2023-04-09T10:16:03.264Z,56.69
2023-04-09T10:17:02.375Z,57.87
2023-04-09T10:18:02.373Z,58.38
2023-04-09T10:19:02.481Z,57.78
2023-04-09T10:20:02.659Z,57.57
2023-04-09T10:21:02.535Z,56.94
2023-04-09T10:22:02.713Z,57.14
2023-04-09T10:23:02.976Z,57.52
2023-04-09T10:24:03.025Z,58.02
2023-04-09T10:25:02.388Z,57.29
2023-04-09T10:26:02.509Z,57.29
2023-04-09T10:27:03.327Z,56.78
2023-04-09T10:28:03.495Z,56.18
2023-04-09T10:29:03.632Z,56.58
2023-04-09T10:30:03.379Z,56.27
2023-04-09T10:31:03.067Z,55.16
2023-04-09T10:32:02.488Z,55.57
2023-04-09T10:33:02.595Z,55.60
2023-04-09T10:34:02.709Z,56.40
2023-04-09T10:35:03.055Z,55.29
2023-04-09T10:36:02.989Z,55.69
2023-04-09T10:37:02.549Z,54.51
2023-04-09T10:38:02.494Z,56.02
2023-04-09T10:39:02.550Z,56.53
2023-04-09T10:40:02.605Z,55.40
2023-04-09T10:41:02.719Z,54.91
2023-04-09T10:42:03.099Z,55.52
2023-04-09T10:43:03.011Z,55.60
2023-04-09T10:44:03.146Z,55.62
2023-04-09T10:45:03.222Z,56.43
2023-04-09T10:46:02.653Z,56.23
2023-04-09T10:47:02.725Z,55.40
2023-04-09T10:48:02.296Z,55.40
2023-04-09T10:49:02.836Z,55.09
2023-04-09T10:50:02.735Z,54.91
2023-04-09T10:51:02.754Z,55.02
2023-04-09T10:52:02.913Z,55.65
2023-04-09T10:53:02.733Z,55.75
2023-04-09T10:54:02.536Z,56.23
2023-04-09T10:55:02.635Z,56.73
2023-04-09T10:56:02.766Z,58.02
2023-04-09T10:57:03.186Z,55.80
2023-04-09T10:58:03.297Z,56.10
2023-04-09T10:59:03.378Z,56.58
2023-04-09T11:00:03.224Z,56.58
2023-04-09T11:01:03.213Z,55.98
2023-04-09T11:02:03.033Z,56.35
2023-04-09T11:03:02.846Z,55.04
2023-04-09T11:04:02.877Z,54.23
2023-04-09T11:05:02.776Z,54.05
2023-04-09T11:06:02.953Z,54.05
2023-04-09T11:07:03.406Z,55.29
2023-04-09T11:08:03.527Z,56.48
2023-04-09T11:09:03.457Z,56.18
2023-04-09T11:10:03.309Z,55.77
2023-04-09T11:11:03.511Z,55.77
2023-04-09T11:12:03.455Z,55.07
2023-04-09T11:13:03.125Z,55.40
2023-04-09T11:14:02.986Z,56.91
2023-04-09T11:15:03.143Z,56.71
2023-04-09T11:16:03.432Z,56.40
2023-04-09T11:17:03.031Z,56.10
2023-04-09T11:18:02.663Z,56.23
2023-04-09T11:19:02.718Z,56.73
2023-04-09T11:20:02.786Z,55.90
2023-04-09T11:21:02.999Z,56.13
2023-04-09T11:22:03.160Z,56.53
2023-04-09T11:23:03.030Z,56.33
2023-04-09T11:24:03.053Z,56.33
2023-04-09T11:25:02.717Z,57.44
2023-04-09T11:26:02.785Z,56.02
2023-04-09T11:27:03.515Z,56.43
2023-04-09T11:28:03.360Z,57.44
2023-04-09T11:29:03.275Z,55.62
2023-04-09T11:30:03.292Z,56.43
2023-04-09T11:31:03.507Z,56.84
2023-04-09T11:32:02.137Z,56.40
2023-04-09T11:33:02.381Z,57.01
2023-04-09T11:34:02.416Z,57.21
2023-04-09T11:35:02.477Z,55.90
2023-04-09T11:36:02.250Z,56.91
2023-04-09T11:37:02.621Z,57.01
2023-04-09T11:38:02.861Z,56.10
2023-04-09T11:39:02.838Z,55.69
2023-04-09T11:40:03.275Z,55.60
2023-04-09T11:41:03.264Z,56.40
2023-04-09T11:42:02.829Z,56.30
2023-04-09T11:43:03.139Z,57.11
2023-04-09T11:44:02.912Z,56.71
2023-04-09T11:45:02.987Z,55.69
2023-04-09T11:46:03.185Z,56.20
2023-04-09T11:47:03.533Z,57.39
2023-04-09T11:48:02.825Z,54.99
2023-04-09T11:49:02.976Z,55.69
2023-04-09T11:50:02.487Z,56.10
2023-04-09T11:51:02.624Z,57.39
2023-04-09T11:52:02.675Z,55.07
2023-04-09T11:53:03.388Z,54.56
2023-04-09T11:54:03.422Z,54.86
2023-04-09T11:55:03.430Z,55.49
2023-04-09T11:56:03.510Z,55.27
2023-04-09T11:57:03.423Z,55.29
2023-04-09T11:58:03.224Z,55.47
2023-04-09T11:59:03.167Z,54.86
2023-04-09T12:00:05.210Z,55.36
2023-04-09T12:01:03.076Z,56.88
2023-04-09T12:02:03.357Z,55.54
2023-04-09T12:03:03.658Z,56.76
2023-04-09T12:04:03.445Z,55.54
2023-04-09T12:05:03.056Z,56.45
2023-04-09T12:06:03.579Z,55.32
2023-04-09T12:07:02.905Z,54.61
2023-04-09T12:08:02.950Z,55.01
2023-04-09T12:09:02.751Z,55.01
2023-04-09T12:10:02.602Z,54.81
2023-04-09T12:11:02.926Z,52.92
2023-04-09T12:12:02.855Z,54.33
2023-04-09T12:13:02.010Z,54.13
2023-04-09T12:14:02.040Z,54.05
2023-04-09T12:15:02.129Z,54.66
2023-04-09T12:16:02.302Z,55.27
2023-04-09T12:17:02.539Z,55.07
2023-04-09T12:18:03.287Z,54.56
2023-04-09T12:19:03.163Z,54.56
2023-04-09T12:20:02.839Z,54.25
2023-04-09T12:21:02.949Z,54.36
2023-04-09T12:22:02.860Z,55.16
2023-04-09T12:23:02.347Z,55.57
2023-04-09T12:24:02.454Z,54.53
2023-04-09T12:25:02.650Z,55.04
2023-04-09T12:26:02.722Z,55.54
2023-04-09T12:27:02.172Z,53.22
2023-04-09T12:28:03.047Z,53.83
2023-04-09T12:29:02.919Z,55.24
2023-04-09T12:30:03.020Z,55.74
2023-04-09T12:31:02.785Z,55.65
2023-04-09T12:32:02.682Z,54.23
2023-04-09T12:33:02.897Z,54.03
2023-04-09T12:34:03.063Z,54.83
2023-04-09T12:35:02.903Z,54.94
2023-04-09T12:36:03.199Z,54.83
2023-04-09T12:37:02.875Z,55.24
2023-04-09T12:38:02.490Z,55.04
2023-04-09T12:39:02.604Z,54.76
2023-04-09T12:40:02.735Z,54.86
2023-04-09T12:41:02.677Z,55.87
2023-04-09T12:42:02.477Z,55.47
2023-04-09T12:43:02.990Z,55.27
2023-04-09T12:44:02.767Z,55.27
2023-04-09T12:45:02.739Z,55.49
2023-04-09T12:46:02.920Z,55.19
2023-04-09T12:47:03.134Z,54.58
2023-04-09T12:48:02.925Z,55.29
2023-04-09T12:49:02.503Z,55.57
2023-04-09T12:50:02.723Z,55.16
2023-04-09T12:51:02.772Z,53.55
2023-04-09T12:52:02.393Z,53.58